Time;durP1;ratioP1;P1;durP2;ratioP2;P2;SDS_P1;SDS_P2;PMS_P1;PMS_P2;Temp;Humidity;BMP_temperature;BMP_pressure;BME280_temperature;BME280_humidity;BME280_pressure;Samples;Min_cycle;Max_cycle;Signal;HPM_P1;HPM_P2
2022/07/06 00:01:58;;;;;;;14.57;11.53;;;;;;;20.38;100.00;62979.97;5052772;28;20777;-75
2022/07/06 00:04:26;;;;;;;16.70;12.53;;;;;;;20.38;100.00;62980.53;5048682;28;20211;-75
2022/07/06 00:06:54;;;;;;;17.20;13.87;;;;;;;20.36;100.00;62977.81;5068894;28;20211;-74
2022/07/06 00:09:21;;;;;;;20.07;15.70;;;;;;;20.37;100.00;62987.19;5051560;28;20199;-75
2022/07/06 00:11:49;;;;;;;22.10;15.43;;;;;;;20.31;100.00;62975.00;5051208;28;20219;-74
2022/07/06 00:14:19;;;;;;;18.40;12.47;;;;;;;20.40;100.00;62985.28;5047856;28;20209;-74
2022/07/06 00:16:46;;;;;;;17.30;13.13;;;;;;;20.26;100.00;62970.13;5060181;28;20211;-74
2022/07/06 00:19:13;;;;;;;17.63;13.17;;;;;;;20.29;100.00;62972.84;5073037;28;20227;-74
2022/07/06 00:21:43;;;;;;;16.97;11.97;;;;;;;20.27;100.00;62973.81;5045420;28;20599;-74
2022/07/06 00:24:10;;;;;;;17.47;12.10;;;;;;;19.90;100.00;62928.63;5061228;28;20219;-75
2022/07/06 00:26:37;;;;;;;14.20;11.77;;;;;;;20.02;100.00;62942.09;5071068;28;20200;-75
2022/07/06 00:29:04;;;;;;;16.43;12.00;;;;;;;20.06;100.00;62951.59;5071139;28;20291;-74
2022/07/06 00:31:31;;;;;;;16.53;12.53;;;;;;;19.94;100.00;62938.09;5054916;28;20208;-75
2022/07/06 00:33:58;;;;;;;18.13;13.57;;;;;;;20.01;100.00;62946.22;5064746;28;20664;-74
2022/07/06 00:36:25;;;;;;;17.97;14.10;;;;;;;20.04;100.00;62946.34;5051539;28;20207;-76
2022/07/06 00:38:54;;;;;;;16.70;13.90;;;;;;;19.92;100.00;62933.88;5050962;28;20225;-74
2022/07/06 00:41:23;;;;;;;20.13;14.10;;;;;;;20.10;100.00;62947.66;5063159;28;20208;-75
2022/07/06 00:43:51;;;;;;;21.03;13.93;;;;;;;20.05;100.00;62950.00;5070464;28;20208;-75
2022/07/06 00:46:18;;;;;;;19.07;14.00;;;;;;;19.41;100.00;62878.25;5043556;28;20205;-74
2022/07/06 00:48:46;;;;;;;16.87;13.00;;;;;;;19.85;100.00;62923.75;5051554;28;20208;-75
2022/07/06 00:51:14;;;;;;;18.40;13.60;;;;;;;19.82;100.00;62919.97;5063614;28;20585;-74
2022/07/06 00:53:43;;;;;;;19.90;13.73;;;;;;;19.72;100.00;62914.34;5047291;28;20197;-74
2022/07/06 00:56:12;;;;;;;16.63;12.87;;;;;;;19.81;100.00;62924.03;5060046;28;20224;-75
2022/07/06 00:58:40;;;;;;;19.67;13.40;;;;;;;19.81;100.00;62918.88;5050857;28;20225;-75
2022/07/06 01:01:09;;;;;;;16.20;13.27;;;;;;;19.79;100.00;62919.31;5052230;28;20201;-75
2022/07/06 01:03:36;;;;;;;17.23;12.97;;;;;;;19.74;100.00;62916.50;5063161;28;20196;-76
2022/07/06 01:06:04;;;;;;;19.70;14.23;;;;;;;19.80;100.00;62920.91;5071898;28;20294;-74
2022/07/06 01:08:31;;;;;;;22.67;13.57;;;;;;;19.94;100.00;62935.53;5071309;28;20204;-73
2022/07/06 01:10:58;;;;;;;20.33;13.73;;;;;;;20.00;100.00;62944.59;5057795;28;20200;-74
2022/07/06 01:13:27;;;;;;;18.07;13.83;;;;;;;19.84;100.00;62927.31;5071245;28;20200;-74
2022/07/06 01:15:56;;;;;;;17.17;13.87;;;;;;;19.99;100.00;62940.91;5069987;28;20200;-75
2022/07/06 01:18:25;;;;;;;17.07;13.30;;;;;;;19.96;100.00;62937.69;5057254;28;20204;-74
2022/07/06 01:21:07;;;;;;;15.70;13.33;;;;;;;20.08;100.00;62953.78;5070152;28;20287;-75
2022/07/06 01:23:40;;;;;;;18.43;13.70;;;;;;;19.94;100.00;62930.34;5070161;28;20211;-75
2022/07/06 01:26:11;;;;;;;17.03;13.40;;;;;;;20.12;100.00;62957.56;5056647;28;20209;-77
2022/07/06 01:28:40;;;;;;;16.33;13.17;;;;;;;20.14;100.00;62954.56;5053226;28;20231;-75
2022/07/06 01:31:14;;;;;;;17.77;13.83;;;;;;;20.07;100.00;62947.53;5054818;28;20205;-74
2022/07/06 01:33:42;;;;;;;18.77;14.70;;;;;;;20.16;100.00;62959.84;5054476;28;20237;-76
2022/07/06 01:36:14;;;;;;;19.57;14.53;;;;;;;20.23;100.00;62968.94;5054214;28;20212;-74
2022/07/06 01:38:48;;;;;;;17.93;14.80;;;;;;;20.18;100.00;62961.47;5054538;28;20228;-74
2022/07/06 01:41:16;;;;;;;23.70;14.83;;;;;;;20.16;100.00;62956.72;5054391;28;20193;-74
2022/07/06 01:43:43;;;;;;;23.17;16.10;;;;;;;19.81;100.00;62924.03;5066332;28;20211;-75
2022/07/06 01:46:11;;;;;;;21.73;16.27;;;;;;;20.19;100.00;62965.69;5073110;28;20196;-75
2022/07/06 01:48:39;;;;;;;19.13;15.63;;;;;;;20.33;100.00;62975.13;5073997;28;20200;-75
2022/07/06 01:51:06;;;;;;;20.17;16.83;;;;;;;20.17;100.00;62958.34;5073819;28;20219;-74
2022/07/06 01:53:34;;;;;;;23.80;16.97;;;;;;;20.22;100.00;62963.22;5073972;28;20204;-75
2022/07/06 01:56:02;;;;;;;18.17;16.23;;;;;;;19.70;100.00;62907.53;5073901;28;20605;-74
2022/07/06 01:58:30;;;;;;;22.67;17.43;;;;;;;20.29;100.00;62967.66;5073776;28;20239;-77
2022/07/06 02:00:58;;;;;;;25.53;20.07;;;;;;;20.26;100.00;62967.56;5062726;28;20237;-74
2022/07/06 02:03:25;;;;;;;27.30;22.03;;;;;;;20.13;100.00;62954.00;5043981;28;20216;-75
2022/07/06 02:05:52;;;;;;;29.90;23.13;;;;;;;19.87;100.00;62925.34;5075800;28;20208;-75
2022/07/06 02:08:19;;;;;;;32.00;24.70;;;;;;;20.25;100.00;62971.63;5074375;28;20266;-75
2022/07/06 02:10:48;;;;;;;31.83;22.80;;;;;;;20.16;100.00;62956.72;5076442;28;20248;-75
2022/07/06 02:13:15;;;;;;;30.80;23.90;;;;;;;19.65;100.00;62912.47;5063695;28;20235;-74
2022/07/06 02:15:44;;;;;;;26.90;21.80;;;;;;;19.83;100.00;62926.22;5056143;28;20205;-74
2022/07/06 02:18:11;;;;;;;26.37;18.30;;;;;;;20.29;100.00;62975.97;5055062;28;20565;-74
2022/07/06 02:20:38;;;;;;;20.27;16.17;;;;;;;20.22;100.00;62965.81;5057165;28;20229;-74
2022/07/06 02:23:06;;;;;;;17.97;14.03;;;;;;;20.15;100.00;62965.97;5059231;28;20211;-74
2022/07/06 02:25:34;;;;;;;20.97;15.43;;;;;;;20.28;100.00;62969.72;5065331;28;20588;-75
2022/07/06 02:28:02;;;;;;;16.13;13.13;;;;;;;20.15;100.00;62960.81;5054849;28;20683;-75
2022/07/06 02:30:29;;;;;;;16.63;12.57;;;;;;;20.17;100.00;62958.34;5054438;28;20204;-75
2022/07/06 02:32:57;;;;;;;16.30;12.87;;;;;;;20.16;100.00;62959.31;5053904;28;20256;-75
2022/07/06 02:35:24;;;;;;;20.00;13.80;;;;;;;19.96;100.00;62935.63;5053849;28;20274;-74
2022/07/06 02:37:52;;;;;;;14.40;12.90;;;;;;;20.11;100.00;62951.31;5053737;28;20197;-74
2022/07/06 02:40:18;;;;;;;17.17;13.47;;;;;;;19.70;100.00;62912.16;5053002;28;20235;-75
2022/07/06 02:42:47;;;;;;;15.00;12.93;;;;;;;20.15;100.00;62953.03;5053643;28;20679;-75
2022/07/06 02:45:16;;;;;;;18.03;12.13;;;;;;;19.90;100.00;62928.63;5053406;28;20212;-74
2022/07/06 02:47:44;;;;;;;14.97;12.57;;;;;;;19.96;100.00;62932.50;5053500;28;20209;-74
2022/07/06 02:50:14;;;;;;;15.00;11.90;;;;;;;19.94;100.00;62930.34;5053078;28;20212;-74
2022/07/06 02:52:40;;;;;;;17.03;12.77;;;;;;;19.92;100.00;62931.31;5063759;28;20320;-75
2022/07/06 02:55:09;;;;;;;16.23;11.87;;;;;;;19.90;100.00;62933.78;5040232;28;20216;-75
2022/07/06 02:57:37;;;;;;;15.30;12.27;;;;;;;19.91;100.00;62934.84;5053436;28;20294;-74
2022/07/06 03:00:05;;;;;;;14.97;11.63;;;;;;;20.01;100.00;62940.50;5053301;28;20229;-75
2022/07/06 03:02:34;;;;;;;17.83;12.23;;;;;;;20.05;100.00;62944.81;5052872;28;20205;-74
2022/07/06 03:05:05;;;;;;;19.37;13.33;;;;;;;19.83;100.00;62926.75;5053124;28;20205;-74
2022/07/06 03:07:33;;;;;;;16.90;13.23;;;;;;;19.80;100.00;62918.34;5052731;28;20265;-76
2022/07/06 03:10:01;;;;;;;15.77;12.90;;;;;;;20.11;100.00;62951.31;5052816;28;20216;-73
2022/07/06 03:12:28;;;;;;;19.90;13.43;;;;;;;20.16;100.00;62959.31;5052548;28;20193;-74
2022/07/06 03:14:55;;;;;;;15.13;13.00;;;;;;;20.27;100.00;62968.63;5052447;28;20204;-75
2022/07/06 03:17:23;;;;;;;18.63;12.87;;;;;;;19.86;100.00;62924.28;5052399;28;20208;-75
2022/07/06 03:19:52;;;;;;;16.20;12.30;;;;;;;20.30;100.00;62971.88;5062949;28;20239;-74
2022/07/06 03:22:20;;;;;;;15.83;12.23;;;;;;;19.57;100.00;62892.94;5071845;28;20204;-75
2022/07/06 03:24:47;;;;;;;13.67;12.10;;;;;;;20.32;100.00;62974.03;5068908;28;20670;-75
2022/07/06 03:27:15;;;;;;;15.03;12.43;;;;;;;20.19;100.00;62959.97;5052772;28;20201;-75
2022/07/06 03:29:42;;;;;;;14.30;12.33;;;;;;;20.13;100.00;62953.47;5055279;28;20683;-75
2022/07/06 03:32:09;;;;;;;17.83;13.73;;;;;;;19.72;100.00;62909.16;5062103;28;20233;-75
2022/07/06 03:35:07;;;;;;;21.23;15.93;;;;;;;20.19;100.00;62959.97;5052004;28;20201;-77
2022/07/06 03:37:38;;;;;;;21.00;15.43;;;;;;;20.09;100.00;62949.16;5052681;28;20213;-75
2022/07/06 03:40:15;;;;;;;23.93;16.77;;;;;;;20.10;100.00;62955.41;5052769;28;20271;-73
2022/07/06 03:42:42;;;;;;;23.83;16.37;;;;;;;20.16;100.00;62957.25;5051959;28;20215;-75
2022/07/06 03:45:10;;;;;;;19.23;16.53;;;;;;;20.00;100.00;62944.59;5051985;28;20201;-75
2022/07/06 03:47:37;;;;;;;22.00;15.83;;;;;;;20.01;100.00;62945.66;5053293;28;20203;-75
2022/07/06 03:50:05;;;;;;;19.77;15.23;;;;;;;19.19;100.00;62847.78;5062738;28;20215;-74
2022/07/06 03:52:32;;;;;;;21.20;16.23;;;;;;;19.48;100.00;62883.22;5072490;28;20234;-74
2022/07/06 03:55:01;;;;;;;18.97;15.80;;;;;;;19.97;100.00;62941.34;5071981;28;20595;-75
2022/07/06 03:57:28;;;;;;;23.60;16.03;;;;;;;19.93;100.00;62931.84;5070660;28;20208;-75
2022/07/06 03:59:56;;;;;;;22.17;15.17;;;;;;;19.99;100.00;62938.88;5051524;28;20247;-76
2022/07/06 04:02:26;;;;;;;21.53;15.17;;;;;;;19.42;100.00;62876.75;5064720;28;20197;-74
2022/07/06 04:04:53;;;;;;;25.77;15.87;;;;;;;19.95;100.00;62934.56;5053293;28;20204;-76
2022/07/06 04:10:04;;;;;;;26.00;16.40;;;;;;;19.89;100.00;62932.69;5050928;28;20283;-76
2022/07/06 04:12:32;;;;;;;18.43;15.07;;;;;;;20.02;100.00;62944.69;5050665;28;20259;-76
2022/07/06 04:15:01;;;;;;;18.37;14.47;;;;;;;20.36;100.00;62978.38;5051979;28;20569;-75
2022/07/06 04:20:13;;;;;;;19.27;14.87;;;;;;;20.62;100.00;63009.06;5051965;28;20707;-76
2022/07/06 04:22:40;;;;;;;24.37;14.97;;;;;;;20.63;100.00;63009.59;5070357;28;20212;-75
2022/07/06 04:25:10;;;;;;;20.40;14.70;;;;;;;20.24;100.00;62959.66;5049038;28;20210;-74
2022/07/06 04:27:38;;;;;;;18.23;14.83;;;;;;;20.71;100.00;63011.03;5053407;28;20588;-73
2022/07/06 04:30:06;;;;;;;18.53;14.23;;;;;;;20.96;100.00;63043.28;5071715;28;20209;-74
2022/07/06 04:32:33;;;;;;;16.03;13.73;;;;;;;21.26;100.00;63077.25;5070686;28;20228;-74
2022/07/06 04:35:00;;;;;;;16.47;13.27;;;;;;;21.41;100.00;63090.91;5070897;28;20590;-73
2022/07/06 04:37:27;;;;;;;16.33;11.40;;;;;;;21.34;100.00;63080.72;5066940;28;20197;-74
2022/07/06 04:39:57;;;;;;;14.67;9.00;;;;;;;21.05;100.00;63052.47;5061653;28;20274;-75
2022/07/06 04:42:28;;;;;;;12.13;9.50;;;;;;;21.59;100.00;63110.38;5070744;28;20206;-75
2022/07/06 04:44:55;;;;;;;10.73;7.47;;;;;;;21.52;100.00;63102.81;5058969;28;20603;-75
2022/07/06 04:47:22;;;;;;;12.73;8.83;;;;;;;20.81;100.00;63029.06;5069692;28;20591;-75
2022/07/06 04:49:51;;;;;;;10.60;7.77;;;;;;;21.10;100.00;63059.94;5071080;28;20204;-73
2022/07/06 04:52:19;;;;;;;11.20;8.20;;;;;;;21.41;100.00;63094.03;5070188;28;20261;-73
2022/07/06 04:54:46;;;;;;;10.00;7.27;;;;;;;21.41;100.00;63090.91;5070829;28;20294;-74
2022/07/06 04:57:14;;;;;;;13.83;8.17;;;;;;;21.25;100.00;63076.19;5064296;28;20209;-74
2022/07/06 04:59:43;;;;;;;13.30;8.27;;;;;;;21.22;100.00;63072.91;5051134;28;20224;-74
2022/07/06 05:02:11;;;;;;;12.90;8.50;;;;;;;20.93;100.00;63040.00;5047322;28;20203;-75
2022/07/06 05:04:38;;;;;;;15.33;9.70;;;;;;;20.82;100.00;63028.13;5074495;28;20203;-74
2022/07/06 05:07:05;;;;;;;14.27;8.20;;;;;;;20.82;100.00;63028.13;5074933;28;20282;-74
2022/07/06 05:09:33;;;;;;;16.13;9.60;;;;;;;21.17;100.00;63065.44;5060308;28;20296;-74
2022/07/06 05:12:00;;;;;;;16.17;10.30;;;;;;;20.87;100.00;63033.53;5054618;28;20192;-74
2022/07/06 05:14:27;;;;;;;14.13;10.03;;;;;;;20.66;100.00;63016.00;5054222;28;20202;-74
2022/07/06 05:16:55;;;;;;;13.87;10.13;;;;;;;20.77;100.00;63022.16;5040527;28;20222;-74
2022/07/06 05:19:22;;;;;;;15.10;10.13;;;;;;;20.62;100.00;63008.53;5052207;28;20215;-75
2022/07/06 05:21:50;;;;;;;13.97;10.80;;;;;;;20.22;100.00;62968.41;5039237;28;20214;-76
2022/07/06 05:24:17;;;;;;;14.07;10.90;;;;;;;20.82;100.00;63028.13;5064422;28;20608;-74
2022/07/06 05:26:45;;;;;;;13.77;10.70;;;;;;;20.89;100.00;63035.13;5055518;28;20201;-74
2022/07/06 05:29:13;;;;;;;12.93;10.97;;;;;;;20.60;100.00;63004.31;5054185;28;20204;-74
2022/07/06 05:31:40;;;;;;;14.80;10.93;;;;;;;20.60;100.00;63004.31;5053935;28;20204;-74
2022/07/06 05:34:08;;;;;;;21.50;12.63;;;;;;;20.39;100.00;62986.78;5054761;28;20205;-74
2022/07/06 05:36:35;;;;;;;14.53;12.03;;;;;;;20.55;100.00;62998.91;5055323;28;20208;-73
2022/07/06 05:39:04;;;;;;;22.33;11.83;;;;;;;20.57;100.00;63001.06;5065465;28;20216;-73
2022/07/06 05:41:31;;;;;;;22.73;12.40;;;;;;;20.67;100.00;63011.34;5074119;28;20224;-74
2022/07/06 05:43:58;;;;;;;17.37;11.83;;;;;;;20.82;100.00;63030.72;5074926;28;20204;-73
2022/07/06 05:46:25;;;;;;;15.77;11.97;;;;;;;20.74;100.00;63016.88;5073920;28;20200;-73
2022/07/06 05:51:38;;;;;;;17.20;11.67;;;;;;;21.27;100.00;63073.16;5049708;28;20207;-75
2022/07/06 05:54:06;;;;;;;15.03;10.30;;;;;;;21.39;100.00;63089.25;5072873;28;20204;-75
2022/07/06 05:56:33;;;;;;;19.53;11.90;;;;;;;21.31;100.00;63074.91;5047143;28;20229;-74
2022/07/06 05:59:00;;;;;;;12.50;10.20;;;;;;;21.27;100.00;63076.28;5073960;28;20212;-75
2022/07/06 06:01:28;;;;;;;17.03;10.50;;;;;;;21.31;100.00;63080.09;5072560;28;20238;-75
2022/07/06 06:03:55;;;;;;;12.43;9.87;;;;;;;21.39;100.00;63089.25;5073010;28;20562;-75
2022/07/06 06:06:23;;;;;;;17.23;10.30;;;;;;;20.98;100.00;63044.88;5061574;28;20213;-75
2022/07/06 06:08:52;;;;;;;18.70;10.47;;;;;;;21.55;100.00;63106.06;5058821;28;20208;-74
2022/07/06 06:11:20;;;;;;;11.80;9.93;;;;;;;21.69;100.00;63121.22;5054101;28;20231;-74
2022/07/06 06:13:47;;;;;;;17.90;10.53;;;;;;;21.79;100.00;63129.44;5052781;28;20205;-75
2022/07/06 06:16:15;;;;;;;14.47;10.63;;;;;;;21.73;100.00;63125.53;5040595;28;20233;-75
2022/07/06 06:18:42;;;;;;;14.60;10.43;;;;;;;21.15;100.00;63062.75;5053368;28;20236;-75
2022/07/06 06:21:12;;;;;;;14.67;10.77;;;;;;;21.64;100.00;63118.38;5053224;28;20240;-73
2022/07/06 06:23:39;;;;;;;17.57;10.37;;;;;;;21.61;100.00;63109.97;5063109;28;20192;-72
2022/07/06 06:26:08;;;;;;;12.97;10.53;;;;;;;21.74;100.00;63131.81;5059906;28;20198;-74
2022/07/06 06:28:36;;;;;;;11.90;9.40;;;;;;;21.69;100.00;63123.81;5053817;28;20194;-74
2022/07/06 06:31:03;;;;;;;11.90;10.40;;;;;;;21.37;100.00;63091.75;5053409;28;20239;-74
2022/07/06 06:33:30;;;;;;;16.03;11.37;;;;;;;21.80;100.00;63133.66;5052973;28;20239;-74
2022/07/06 06:35:57;;;;;;;16.80;10.77;;;;;;;21.75;100.00;63127.72;5053593;28;20205;-74
2022/07/06 06:38:31;;;;;;;15.93;10.27;;;;;;;21.76;100.00;63128.78;5069669;28;20201;-75
2022/07/06 06:40:59;;;;;;;15.83;10.73;;;;;;;21.57;100.00;63098.38;5035977;28;20637;-74
2022/07/06 06:43:28;;;;;;;13.67;9.87;;;;;;;21.68;100.00;63125.31;5053984;28;20587;-74
2022/07/06 06:45:55;;;;;;;17.93;10.40;;;;;;;21.74;100.00;63127.16;5072982;28;20200;-74
2022/07/06 06:48:22;;;;;;;15.27;10.40;;;;;;;21.71;100.00;63129.09;5071947;28;20231;-74
2022/07/06 06:50:50;;;;;;;16.50;10.80;;;;;;;21.67;100.00;63113.88;5073048;28;20201;-74
2022/07/06 06:53:17;;;;;;;15.30;10.37;;;;;;;21.56;100.00;63104.53;5054474;28;20213;-75
2022/07/06 06:55:45;;;;;;;12.30;10.40;;;;;;;21.77;100.00;63129.88;5051078;28;20224;-74
2022/07/06 06:58:12;;;;;;;14.23;11.03;;;;;;;22.04;100.00;63158.56;5052954;28;20676;-73
2022/07/06 07:00:43;;;;;;;16.70;10.53;;;;;;;22.12;100.00;63170.38;5052580;28;20707;-74
2022/07/06 07:03:10;;;;;;;15.50;10.00;;;;;;;22.11;100.00;63166.72;5052864;28;20607;-74
2022/07/06 07:05:37;;;;;;;14.50;10.47;;;;;;;21.70;100.00;63127.47;5052857;28;20789;-73
2022/07/06 07:08:04;;;;;;;14.60;11.43;;;;;;;22.03;100.00;63158.06;5052471;28;20197;-74
2022/07/06 07:10:31;;;;;;;16.07;10.73;;;;;;;22.05;100.00;63160.22;5052646;28;20209;-75
2022/07/06 07:12:59;;;;;;;14.37;10.93;;;;;;;22.12;100.00;63170.38;5052503;28;20558;-74
2022/07/06 07:15:27;;;;;;;15.03;10.27;;;;;;;22.14;100.00;63172.56;5052653;28;20201;-74
2022/07/06 07:17:56;;;;;;;16.20;10.40;;;;;;;22.42;100.00;63199.75;5067440;28;20681;-74
2022/07/06 07:20:23;;;;;;;14.60;11.23;;;;;;;22.59;100.00;63218.75;5053097;28;20232;-73
2022/07/06 07:22:53;;;;;;;17.20;11.03;;;;;;;22.88;100.00;63246.47;5074421;28;20201;-74
2022/07/06 07:25:20;;;;;;;14.30;10.60;;;;;;;22.68;100.00;63220.69;5065334;28;20550;-74
2022/07/06 07:27:47;;;;;;;13.53;10.67;;;;;;;23.03;100.00;63265.31;5054970;28;20598;-75
2022/07/06 07:30:14;;;;;;;14.20;10.13;;;;;;;22.42;100.00;63200.28;5052146;28;20197;-75
2022/07/06 07:32:41;;;;;;;12.67;10.20;;;;;;;22.94;100.00;63256.09;5054658;28;20233;-74
2022/07/06 07:35:11;;;;;;;14.23;10.27;;;;;;;22.94;100.00;63255.59;5064953;28;20277;-76
2022/07/06 07:37:38;;;;;;;13.03;10.10;;;;;;;22.76;100.00;63236.59;5049529;28;20280;-75
2022/07/06 07:40:06;;;;;;;16.60;11.07;;;;;;;22.93;100.00;63257.09;5062782;28;20208;-74
2022/07/06 07:42:34;;;;;;;11.37;10.17;;;;;;;22.87;100.00;63253.19;5051865;28;20686;-75
2022/07/06 07:45:00;;;;;;;13.83;10.67;;;;;;;22.83;100.00;63244.19;5051979;28;20215;-74
2022/07/06 07:47:28;;;;;;;15.17;11.60;;;;;;;22.96;100.00;63255.69;5052615;28;20196;-75
2022/07/06 07:49:56;;;;;;;17.80;11.10;;;;;;;22.37;100.00;63194.88;5052180;28;20661;-75
2022/07/06 07:52:24;;;;;;;13.60;11.40;;;;;;;22.70;100.00;63229.56;5068478;28;20200;-74
2022/07/06 07:54:52;;;;;;;14.77;11.10;;;;;;;23.35;100.00;63300.03;5071466;28;20227;-76
2022/07/06 07:57:20;;;;;;;15.97;11.20;;;;;;;23.55;100.00;63321.72;5071120;28;20208;-75
2022/07/06 07:59:49;;;;;;;16.00;10.40;;;;;;;24.46;100.00;63419.38;5071234;28;20663;-74
2022/07/06 08:02:16;;;;;;;15.33;10.97;;;;;;;25.01;100.00;63484.34;5070755;28;20224;-75
2022/07/06 08:04:44;;;;;;;13.20;10.00;;;;;;;25.49;100.00;63528.13;5059703;28;20213;-74
2022/07/06 08:07:11;;;;;;;13.80;10.30;;;;;;;25.46;100.00;63528.00;5051761;28;20200;-74
2022/07/06 08:09:40;;;;;;;16.27;11.10;;;;;;;25.42;100.00;63526.28;5051484;28;20772;-74
2022/07/06 08:12:09;;;;;;;12.33;10.00;;;;;;;25.30;100.00;63510.59;5057601;28;20201;-74
2022/07/06 08:14:37;;;;;;;14.70;9.87;;;;;;;25.31;100.00;63509.09;5058157;28;20202;-75
2022/07/06 08:17:05;;;;;;;12.27;10.40;;;;;;;25.71;100.00;63552.56;5045288;28;20681;-75
2022/07/06 08:19:32;;;;;;;12.60;10.20;;;;;;;25.39;100.00;63525.06;5070568;28;20202;-74
2022/07/06 08:22:03;;;;;;;10.00;8.57;;;;;;;26.04;100.00;63587.34;5072564;28;20231;-73
2022/07/06 08:24:30;;;;;;;10.63;9.53;;;;;;;26.15;100.00;63601.91;5059712;28;20288;-75
2022/07/06 08:27:00;;;;;;;15.37;9.90;;;;;;;25.91;100.00;63576.91;5051520;28;20230;-74
2022/07/06 08:29:27;;;;;;;10.20;9.10;;;;;;;26.26;100.00;63608.66;5065572;28;20204;-74
2022/07/06 08:31:54;;;;;;;10.17;8.73;;;;;;;25.95;100.00;63580.72;5062595;28;20229;-74
2022/07/06 08:34:22;;;;;;;12.60;9.90;;;;;;;26.23;100.00;63610.63;5065466;28;20208;-74
2022/07/06 08:36:50;;;;;;;15.67;10.53;;;;;;;26.61;100.00;63647.25;5061843;28;20605;-74
2022/07/06 08:39:17;;;;;;;14.33;9.50;;;;;;;26.25;100.00;63612.78;5065471;28;20200;-74
2022/07/06 08:41:47;;;;;;;13.20;9.37;;;;;;;25.79;100.00;63563.31;5069982;28;20313;-74
2022/07/06 08:44:16;;;;;;;14.03;9.97;;;;;;;26.24;100.00;63616.94;5069234;28;20234;-74
2022/07/06 08:46:44;;;;;;;12.60;9.87;;;;;;;26.68;100.00;63659.56;5070196;28;20204;-73
2022/07/06 08:49:15;;;;;;;11.07;8.93;;;;;;;27.18;100.00;63716.03;5068655;28;20281;-74
2022/07/06 08:51:45;;;;;;;10.10;9.07;;;;;;;27.43;100.00;63735.94;5069727;28;20211;-74
2022/07/06 08:54:13;;;;;;;12.20;9.30;;;;;;;26.24;100.00;63612.25;5069414;28;20568;-73
2022/07/06 08:56:40;;;;;;;13.50;8.63;;;;;;;26.59;100.00;63650.31;5070308;28;20637;-74
2022/07/06 08:59:10;;;;;;;10.57;9.03;;;;;;;26.11;100.00;63597.56;5069433;28;20613;-75
2022/07/06 09:01:40;;;;;;;12.07;8.93;;;;;;;26.61;100.00;63651.94;5070109;28;20223;-74
2022/07/06 09:04:08;;;;;;;12.30;9.87;;;;;;;25.83;100.00;63570.81;5069189;28;20207;-75
2022/07/06 09:06:36;;;;;;;13.93;9.77;;;;;;;25.85;100.00;63570.41;5075218;28;20231;-73
2022/07/06 09:09:07;;;;;;;14.53;10.80;;;;;;;25.81;100.00;63566.03;5061167;28;20210;-73
2022/07/06 09:11:37;;;;;;;14.53;9.80;;;;;;;25.85;100.00;63569.84;5068433;28;20288;-74
2022/07/06 09:14:04;;;;;;;14.90;10.83;;;;;;;25.87;100.00;63577.78;5069688;28;20584;-74
2022/07/06 09:16:33;;;;;;;11.80;10.17;;;;;;;26.02;100.00;63593.53;5068619;28;20686;-74
2022/07/06 09:19:01;;;;;;;14.00;10.03;;;;;;;26.32;100.00;63620.94;5069901;28;20635;-74
2022/07/06 09:21:31;;;;;;;10.40;9.27;;;;;;;26.38;100.00;63626.94;5068643;28;20279;-75
2022/07/06 09:24:00;;;;;;;12.33;9.03;;;;;;;26.35;100.00;63628.88;5070108;28;20685;-74
2022/07/06 09:26:29;;;;;;;13.47;10.07;;;;;;;26.67;100.00;63658.44;5053460;28;20669;-74
2022/07/06 09:28:59;;;;;;;11.90;10.00;;;;;;;26.08;100.00;63594.31;5060887;28;20707;-74
2022/07/06 09:31:28;;;;;;;15.30;9.90;;;;;;;25.04;100.00;63482.38;5065541;28;20199;-75
2022/07/06 09:33:57;;;;;;;11.20;10.10;;;;;;;25.14;100.00;63493.78;5050601;28;20223;-74
2022/07/06 09:36:43;;;;;;;14.43;10.40;;;;;;;24.99;100.00;63476.97;5050383;28;20206;-76
2022/07/06 09:39:22;;;;;;;15.27;10.50;;;;;;;25.21;100.00;63500.31;5050677;28;20201;-74
2022/07/06 09:41:51;;;;;;;16.00;11.17;;;;;;;25.18;100.00;63497.56;5050998;28;20228;-74
2022/07/06 09:44:26;;;;;;;12.77;10.73;;;;;;;25.14;100.00;63496.38;5051123;28;20288;-74
2022/07/06 09:46:53;;;;;;;13.57;10.27;;;;;;;25.17;100.00;63496.50;5048932;28;20275;-74
2022/07/06 09:49:24;;;;;;;15.90;10.47;;;;;;;24.70;100.00;63450.66;5052316;28;20587;-74
2022/07/06 09:51:53;;;;;;;13.43;10.07;;;;;;;25.17;100.00;63496.50;5054161;28;20201;-74
2022/07/06 09:54:20;;;;;;;13.90;10.60;;;;;;;24.95;100.00;63472.63;5053829;28;20666;-74
2022/07/06 09:56:50;;;;;;;12.13;10.30;;;;;;;24.52;100.00;63420.69;5052959;28;20226;-74
2022/07/06 09:59:21;;;;;;;12.83;10.67;;;;;;;24.92;100.00;63472.50;5042743;28;20720;-74
2022/07/06 10:01:54;;;;;;;13.00;11.27;;;;;;;25.02;100.00;63482.81;5054549;28;20281;-74
2022/07/06 10:04:22;;;;;;;17.00;10.80;;;;;;;25.65;100.00;63553.88;5063159;28;20287;-75
2022/07/06 10:06:50;;;;;;;12.87;10.97;;;;;;;26.42;100.00;63631.28;5046893;28;20193;-75
2022/07/06 10:09:20;;;;;;;16.73;12.10;;;;;;;27.02;100.00;63696.53;5074631;28;20249;-75
2022/07/06 10:11:50;;;;;;;17.90;12.70;;;;;;;27.09;100.00;63706.75;5074213;28;20215;-76
2022/07/06 10:14:19;;;;;;;31.83;11.77;;;;;;;27.56;100.00;63755.31;5062342;28;20208;-74
2022/07/06 10:16:48;;;;;;;15.33;11.93;;;;;;;27.43;100.00;63741.16;5044466;28;20664;-74
2022/07/06 10:19:17;;;;;;;17.57;12.17;;;;;;;27.28;100.00;63724.84;5075679;28;20230;-74
2022/07/06 10:21:46;;;;;;;22.33;11.60;;;;;;;28.15;100.00;63821.09;5073908;28;20230;-75
2022/07/06 10:24:14;;;;;;;15.47;12.23;;;;;;;28.11;100.00;63814.66;5073848;28;20200;-75
2022/07/06 10:26:44;;;;;;;19.13;12.40;;;;;;;28.25;100.00;63829.34;5068310;28;20280;-73
2022/07/06 10:29:12;;;;;;;15.23;11.60;;;;;;;27.85;100.00;63788.94;5053598;28;20205;-75
2022/07/06 10:31:42;;;;;;;14.43;11.63;;;;;;;27.87;100.00;63787.97;5054147;28;20201;-76
2022/07/06 10:34:17;;;;;;;12.87;10.87;;;;;;;28.44;100.00;63855.28;5054476;28;20201;-78
2022/07/06 10:36:50;;;;;;;11.60;10.40;;;;;;;28.72;100.00;63883.19;5042401;28;20283;-75
2022/07/06 10:42:42;;;;;;;13.93;12.50;;;;;;;28.61;100.00;63868.59;5054395;28;20287;-75
2022/07/06 10:45:11;;;;;;;14.67;12.03;;;;;;;28.60;100.00;63867.47;5044712;28;20208;-75
2022/07/06 10:47:39;;;;;;;14.73;12.17;;;;;;;29.38;100.00;63954.03;5054885;28;20207;-75
2022/07/06 10:50:07;;;;;;;18.33;11.60;;;;;;;29.56;100.00;63973.66;5053990;28;20197;-75
2022/07/06 10:52:58;;;;;;;14.60;11.20;;;;;;;29.80;100.00;63997.22;5055239;28;20205;-74
2022/07/06 10:55:35;;;;;;;15.43;12.10;;;;;;;29.63;100.00;63976.03;5060520;28;20220;-74
2022/07/06 10:58:05;;;;;;;14.20;12.40;;;;;;;29.62;100.00;63977.56;5071990;28;20279;-75
2022/07/06 11:00:51;;;;;;;14.00;10.73;;;;;;;29.65;100.00;63980.81;5072533;28;20200;-75
2022/07/06 11:03:32;;;;;;;20.03;11.40;;;;;;;29.50;100.00;63965.00;5071775;28;20599;-75
2022/07/06 11:06:00;;;;;;;14.67;10.10;;;;;;;29.03;100.00;63914.34;5059008;28;20200;-74
2022/07/06 11:08:43;;;;;;;11.57;10.37;;;;;;;29.22;100.00;63936.59;5072289;28;20207;-75
2022/07/06 11:11:14;;;;;;;13.67;11.07;;;;;;;29.35;100.00;63948.13;5072041;28;20196;-75
2022/07/06 11:13:50;;;;;;;16.87;11.90;;;;;;;29.46;100.00;63962.75;5060657;28;20207;-75
2022/07/06 11:16:19;;;;;;;13.27;11.57;;;;;;;29.32;100.00;63942.25;5039663;28;20263;-76
2022/07/06 11:18:51;;;;;;;14.00;11.57;;;;;;;29.19;100.00;63931.25;5052612;28;20227;-76
2022/07/06 11:21:19;;;;;;;12.77;10.97;;;;;;;28.99;100.00;63909.44;5058854;28;20218;-75
2022/07/06 11:23:49;;;;;;;12.80;11.50;;;;;;;29.33;100.00;63946.50;5072249;28;20202;-75
2022/07/06 11:26:18;;;;;;;13.40;11.73;;;;;;;28.93;100.00;63902.88;5046300;28;20196;-74
2022/07/06 11:28:49;;;;;;;13.80;11.43;;;;;;;28.37;100.00;63842.44;5058386;28;20216;-74